King Khaled International Airport
OERK : now visible

Airfield :











YOU CAN JOIN US ON...

 
LOGIN :

Register | Disclaimer

   EN    FR    IT 

 









Legend :    VFR   Marginal VFR   IFR   Intensive IFR   Very Intensive IFR
Visi :
Ceiling :
>= 8 km
>= 3000ft
5 to 8 km
1000 to 3000 ft
1500m to 5 km
500 to 1000 ft
800 to 1500m
200 to 500 ft
< 800m
< 200 ft
Symbols :   Thunderstorms  Fog  Heavy snow  Heavy precipitations  Wind > 20 kt






- Airport Elevation : 2049 ft
- IATA code : RUH


OERK - King Khaled International

CURRENT METAR :
  • 242200Z 15005KT CAVOK 23/05 Q1012 NOSIG

EXPIRED METARs :
  • 242100Z 16007KT CAVOK 24/04 Q1013 NOSIG
  • 242000Z 17009KT CAVOK 25/05 Q1013 NOSIG

TAF TAF OERK
Valid from the 24 at 18:00 until the 26 at 00:00 UTC


241700Z 2418/2524 18015KT 8000 FEW040 SCT100
PROB30
TEMPO 2418/2502 5000 BLDU
BECMG 2502/2504 20012G22KT
TEMPO 2502/2510 3500 BLDU
PROB30
TEMPO 2506/2510 0800 BLSA



MET'MAP, your aeronautical weather chart ! - Copyright ORBIFLY December 2007 - Disclaimer

ORBIFLY MET'MAP TEAM :

Programming & Development : Alexandra Zaïnal
Concept & original design : Baudouin d'Aumeries
Assistance for programming : Marc-Olivier Méhu
Technical & hardware support : Manuel Goepfert

Contact : metmap@orbifly.com




SOURCES & CREDITS :

   NOAA       Earth
Advisory